sensor_id;sensor_type;location;lat;lon;timestamp;temperature;humidity
4643;DHT22;2334;48.710;9.622;2022-07-29T00:02:19;19.60;99.90
4643;DHT22;2334;48.710;9.622;2022-07-29T00:05:16;19.60;99.90
4643;DHT22;2334;48.710;9.622;2022-07-29T00:07:55;19.60;99.90
4643;DHT22;2334;48.710;9.622;2022-07-29T00:10:42;19.60;99.90
4643;DHT22;2334;48.710;9.622;2022-07-29T00:13:23;19.60;99.90
4643;DHT22;2334;48.710;9.622;2022-07-29T00:15:53;19.60;99.90
4643;DHT22;2334;48.710;9.622;2022-07-29T00:18:42;19.60;99.90
4643;DHT22;2334;48.710;9.622;2022-07-29T00:21:15;19.50;99.90
4643;DHT22;2334;48.710;9.622;2022-07-29T00:23:58;19.40;99.90
4643;DHT22;2334;48.710;9.622;2022-07-29T00:26:57;19.30;99.90
4643;DHT22;2334;48.710;9.622;2022-07-29T00:29:42;19.30;99.90
4643;DHT22;2334;48.710;9.622;2022-07-29T00:32:12;19.30;99.90
4643;DHT22;2334;48.710;9.622;2022-07-29T00:34:41;19.30;99.90
4643;DHT22;2334;48.710;9.622;2022-07-29T00:37:36;19.40;99.90
4643;DHT22;2334;48.710;9.622;2022-07-29T00:40:03;19.40;99.90
4643;DHT22;2334;48.710;9.622;2022-07-29T00:42:30;19.50;99.90
4643;DHT22;2334;48.710;9.622;2022-07-29T00:45:01;19.40;99.90
4643;DHT22;2334;48.710;9.622;2022-07-29T00:47:33;19.30;99.90
4643;DHT22;2334;48.710;9.622;2022-07-29T00:50:03;19.30;99.90
4643;DHT22;2334;48.710;9.622;2022-07-29T00:52:37;19.30;99.90
4643;DHT22;2334;48.710;9.622;2022-07-29T00:55:06;19.30;99.90
4643;DHT22;2334;48.710;9.622;2022-07-29T00:58:04;19.40;99.90
4643;DHT22;2334;48.710;9.622;2022-07-29T01:00:44;19.40;99.90
4643;DHT22;2334;48.710;9.622;2022-07-29T01:03:12;19.50;99.90
4643;DHT22;2334;48.710;9.622;2022-07-29T01:05:42;19.50;99.90
4643;DHT22;2334;48.710;9.622;2022-07-29T01:08:15;19.60;99.90
4643;DHT22;2334;48.710;9.622;2022-07-29T01:10:43;19.50;99.90
4643;DHT22;2334;48.710;9.622;2022-07-29T01:13:11;19.70;99.90
4643;DHT22;2334;48.710;9.622;2022-07-29T01:15:49;19.70;99.90
4643;DHT22;2334;48.710;9.622;2022-07-29T01:18:21;19.70;99.90
4643;DHT22;2334;48.710;9.622;2022-07-29T01:24:04;19.80;99.90
4643;DHT22;2334;48.710;9.622;2022-07-29T01:26:47;19.60;99.90
4643;DHT22;2334;48.710;9.622;2022-07-29T01:29:29;19.60;99.90
4643;DHT22;2334;48.710;9.622;2022-07-29T01:35:13;19.50;99.90
4643;DHT22;2334;48.710;9.622;2022-07-29T01:37:52;19.60;99.90
4643;DHT22;2334;48.710;9.622;2022-07-29T01:40:24;19.50;99.90
4643;DHT22;2334;48.710;9.622;2022-07-29T01:42:55;19.50;99.90
4643;DHT22;2334;48.710;9.622;2022-07-29T01:45:35;19.50;99.90
4643;DHT22;2334;48.710;9.622;2022-07-29T01:48:15;19.50;99.90
4643;DHT22;2334;48.710;9.622;2022-07-29T01:50:48;19.40;99.90
4643;DHT22;2334;48.710;9.622;2022-07-29T01:53:31;19.40;99.90
4643;DHT22;2334;48.710;9.622;2022-07-29T01:56:03;19.30;99.90
4643;DHT22;2334;48.710;9.622;2022-07-29T01:58:31;19.30;99.90
4643;DHT22;2334;48.710;9.622;2022-07-29T02:01:05;19.20;99.90
4643;DHT22;2334;48.710;9.622;2022-07-29T02:03:36;19.20;99.90
4643;DHT22;2334;48.710;9.622;2022-07-29T02:06:06;19.20;99.90
4643;DHT22;2334;48.710;9.622;2022-07-29T02:08:34;19.00;99.90
4643;DHT22;2334;48.710;9.622;2022-07-29T02:11:19;19.00;99.90
4643;DHT22;2334;48.710;9.622;2022-07-29T02:14:05;19.00;99.90
4643;DHT22;2334;48.710;9.622;2022-07-29T02:16:37;19.00;99.90
4643;DHT22;2334;48.710;9.622;2022-07-29T02:19:10;19.00;99.90
4643;DHT22;2334;48.710;9.622;2022-07-29T02:21:50;18.90;99.90
4643;DHT22;2334;48.710;9.622;2022-07-29T02:24:33;18.80;99.90
4643;DHT22;2334;48.710;9.622;2022-07-29T02:30:09;18.70;99.90
4643;DHT22;2334;48.710;9.622;2022-07-29T02:32:40;18.70;99.90
4643;DHT22;2334;48.710;9.622;2022-07-29T02:35:15;18.70;99.90
4643;DHT22;2334;48.710;9.622;2022-07-29T02:37:45;18.60;99.90
4643;DHT22;2334;48.710;9.622;2022-07-29T02:40:34;18.60;99.90
4643;DHT22;2334;48.710;9.622;2022-07-29T02:43:05;18.60;99.90
4643;DHT22;2334;48.710;9.622;2022-07-29T02:45:36;18.70;99.90
4643;DHT22;2334;48.710;9.622;2022-07-29T02:48:09;18.60;99.90
4643;DHT22;2334;48.710;9.622;2022-07-29T02:50:53;18.50;99.90
4643;DHT22;2334;48.710;9.622;2022-07-29T02:53:26;18.60;99.90
4643;DHT22;2334;48.710;9.622;2022-07-29T02:55:56;18.50;99.90
4643;DHT22;2334;48.710;9.622;2022-07-29T02:58:28;18.60;99.90
4643;DHT22;2334;48.710;9.622;2022-07-29T03:01:01;18.60;99.90
4643;DHT22;2334;48.710;9.622;2022-07-29T03:03:38;18.50;99.90
4643;DHT22;2334;48.710;9.622;2022-07-29T03:06:11;18.40;99.90
4643;DHT22;2334;48.710;9.622;2022-07-29T03:08:40;18.50;99.90
4643;DHT22;2334;48.710;9.622;2022-07-29T03:11:15;18.50;99.90
4643;DHT22;2334;48.710;9.622;2022-07-29T03:13:45;18.50;99.90
4643;DHT22;2334;48.710;9.622;2022-07-29T03:16:18;18.40;99.90
4643;DHT22;2334;48.710;9.622;2022-07-29T03:18:47;18.40;99.90
4643;DHT22;2334;48.710;9.622;2022-07-29T03:21:28;18.40;99.90
4643;DHT22;2334;48.710;9.622;2022-07-29T03:24:10;18.40;99.90
4643;DHT22;2334;48.710;9.622;2022-07-29T03:26:50;18.40;99.90
4643;DHT22;2334;48.710;9.622;2022-07-29T03:29:17;18.30;99.90
4643;DHT22;2334;48.710;9.622;2022-07-29T03:31:44;18.30;99.90
4643;DHT22;2334;48.710;9.622;2022-07-29T03:34:12;18.30;99.90
4643;DHT22;2334;48.710;9.622;2022-07-29T03:36:39;18.30;99.90
4643;DHT22;2334;48.710;9.622;2022-07-29T03:39:31;18.20;99.90
4643;DHT22;2334;48.710;9.622;2022-07-29T03:42:11;18.10;99.90
4643;DHT22;2334;48.710;9.622;2022-07-29T03:44:43;18.10;99.90
4643;DHT22;2334;48.710;9.622;2022-07-29T03:47:11;18.00;99.90
4643;DHT22;2334;48.710;9.622;2022-07-29T03:49:46;18.00;99.90
4643;DHT22;2334;48.710;9.622;2022-07-29T03:52:15;18.00;99.90
4643;DHT22;2334;48.710;9.622;2022-07-29T03:54:44;18.00;99.90
4643;DHT22;2334;48.710;9.622;2022-07-29T03:57:23;18.00;99.90
4643;DHT22;2334;48.710;9.622;2022-07-29T03:59:58;18.00;99.90
4643;DHT22;2334;48.710;9.622;2022-07-29T04:02:34;18.00;99.90
4643;DHT22;2334;48.710;9.622;2022-07-29T04:05:14;18.00;99.90
4643;DHT22;2334;48.710;9.622;2022-07-29T04:07:43;17.90;99.90
4643;DHT22;2334;48.710;9.622;2022-07-29T04:10:14;18.00;99.90
4643;DHT22;2334;48.710;9.622;2022-07-29T04:13:18;18.00;99.90
4643;DHT22;2334;48.710;9.622;2022-07-29T04:16:09;18.00;99.90
4643;DHT22;2334;48.710;9.622;2022-07-29T04:18:36;18.00;99.90
4643;DHT22;2334;48.710;9.622;2022-07-29T04:24:15;18.00;99.90
4643;DHT22;2334;48.710;9.622;2022-07-29T04:26:42;18.00;99.90
4643;DHT22;2334;48.710;9.622;2022-07-29T04:29:14;18.10;99.90
4643;DHT22;2334;48.710;9.622;2022-07-29T04:31:43;18.10;99.90
4643;DHT22;2334;48.710;9.622;2022-07-29T04:34:11;18.10;99.90
4643;DHT22;2334;48.710;9.622;2022-07-29T04:36:40;18.10;99.90
4643;DHT22;2334;48.710;9.622;2022-07-29T04:39:07;18.10;99.90
4643;DHT22;2334;48.710;9.622;2022-07-29T04:41:40;18.00;99.90
4643;DHT22;2334;48.710;9.622;2022-07-29T04:44:32;18.00;99.90
4643;DHT22;2334;48.710;9.622;2022-07-29T04:47:19;18.00;99.90
4643;DHT22;2334;48.710;9.622;2022-07-29T04:52:52;18.00;99.90
4643;DHT22;2334;48.710;9.622;2022-07-29T04:55:26;18.00;99.90
4643;DHT22;2334;48.710;9.622;2022-07-29T04:57:53;18.10;99.90
4643;DHT22;2334;48.710;9.622;2022-07-29T05:00:32;18.20;99.90
4643;DHT22;2334;48.710;9.622;2022-07-29T05:03:02;18.30;99.90
4643;DHT22;2334;48.710;9.622;2022-07-29T05:05:32;18.30;99.90
4643;DHT22;2334;48.710;9.622;2022-07-29T05:08:03;18.30;99.90
4643;DHT22;2334;48.710;9.622;2022-07-29T05:10:33;18.30;99.90
4643;DHT22;2334;48.710;9.622;2022-07-29T05:13:20;18.30;99.90
4643;DHT22;2334;48.710;9.622;2022-07-29T05:15:57;18.40;99.90
4643;DHT22;2334;48.710;9.622;2022-07-29T05:18:28;18.40;99.90
4643;DHT22;2334;48.710;9.622;2022-07-29T05:20:58;18.50;99.90
4643;DHT22;2334;48.710;9.622;2022-07-29T05:23:50;18.50;99.90
4643;DHT22;2334;48.710;9.622;2022-07-29T05:26:21;18.50;99.90
4643;DHT22;2334;48.710;9.622;2022-07-29T05:28:52;18.50;99.90
4643;DHT22;2334;48.710;9.622;2022-07-29T05:31:28;18.50;99.90
4643;DHT22;2334;48.710;9.622;2022-07-29T05:34:16;18.50;99.90
4643;DHT22;2334;48.710;9.622;2022-07-29T05:36:46;18.40;99.90
4643;DHT22;2334;48.710;9.622;2022-07-29T05:39:15;18.40;99.90
4643;DHT22;2334;48.710;9.622;2022-07-29T05:41:45;18.40;99.90
4643;DHT22;2334;48.710;9.622;2022-07-29T05:44:29;18.40;99.90
4643;DHT22;2334;48.710;9.622;2022-07-29T05:47:06;18.40;99.90
4643;DHT22;2334;48.710;9.622;2022-07-29T05:49:40;18.50;99.90
4643;DHT22;2334;48.710;9.622;2022-07-29T05:52:16;18.50;99.90
4643;DHT22;2334;48.710;9.622;2022-07-29T05:54:50;18.50;99.90
4643;DHT22;2334;48.710;9.622;2022-07-29T05:57:23;18.50;99.90
4643;DHT22;2334;48.710;9.622;2022-07-29T05:59:52;18.50;99.90
4643;DHT22;2334;48.710;9.622;2022-07-29T06:02:35;18.40;99.90
4643;DHT22;2334;48.710;9.622;2022-07-29T06:05:10;18.40;99.90
4643;DHT22;2334;48.710;9.622;2022-07-29T06:07:45;18.50;99.90
4643;DHT22;2334;48.710;9.622;2022-07-29T06:10:19;18.50;99.90
4643;DHT22;2334;48.710;9.622;2022-07-29T06:13:01;18.60;99.90
4643;DHT22;2334;48.710;9.622;2022-07-29T06:15:36;18.70;99.90
4643;DHT22;2334;48.710;9.622;2022-07-29T06:18:06;18.90;99.90
4643;DHT22;2334;48.710;9.622;2022-07-29T06:20:43;19.00;99.90
4643;DHT22;2334;48.710;9.622;2022-07-29T06:23:10;19.00;99.90
4643;DHT22;2334;48.710;9.622;2022-07-29T06:25:40;19.00;99.90
4643;DHT22;2334;48.710;9.622;2022-07-29T06:28:17;19.10;99.90
4643;DHT22;2334;48.710;9.622;2022-07-29T06:30:58;19.20;99.90
4643;DHT22;2334;48.710;9.622;2022-07-29T06:33:27;19.20;99.90
4643;DHT22;2334;48.710;9.622;2022-07-29T06:35:57;19.20;99.90
4643;DHT22;2334;48.710;9.622;2022-07-29T06:38:37;19.20;99.90
4643;DHT22;2334;48.710;9.622;2022-07-29T06:41:10;19.10;99.90
4643;DHT22;2334;48.710;9.622;2022-07-29T06:43:56;19.10;99.90
4643;DHT22;2334;48.710;9.622;2022-07-29T06:46:27;19.10;99.90
4643;DHT22;2334;48.710;9.622;2022-07-29T06:48:57;19.20;99.90
4643;DHT22;2334;48.710;9.622;2022-07-29T06:51:26;19.40;99.90
4643;DHT22;2334;48.710;9.622;2022-07-29T06:54:09;19.70;99.90
4643;DHT22;2334;48.710;9.622;2022-07-29T06:56:41;19.90;99.90
4643;DHT22;2334;48.710;9.622;2022-07-29T06:59:12;20.20;99.90
4643;DHT22;2334;48.710;9.622;2022-07-29T07:01:48;20.30;99.90
4643;DHT22;2334;48.710;9.622;2022-07-29T07:04:21;20.30;99.90
4643;DHT22;2334;48.710;9.622;2022-07-29T07:06:50;20.50;99.90
4643;DHT22;2334;48.710;9.622;2022-07-29T07:09:32;20.70;99.90
4643;DHT22;2334;48.710;9.622;2022-07-29T07:12:06;20.90;99.90
4643;DHT22;2334;48.710;9.622;2022-07-29T07:14:43;21.10;99.90
4643;DHT22;2334;48.710;9.622;2022-07-29T07:17:11;21.20;99.90
4643;DHT22;2334;48.710;9.622;2022-07-29T07:19:50;21.30;99.90
4643;DHT22;2334;48.710;9.622;2022-07-29T07:22:22;21.50;99.90
4643;DHT22;2334;48.710;9.622;2022-07-29T07:24:50;21.60;99.90
4643;DHT22;2334;48.710;9.622;2022-07-29T07:27:25;21.90;99.90
4643;DHT22;2334;48.710;9.622;2022-07-29T07:29:56;22.00;99.90
4643;DHT22;2334;48.710;9.622;2022-07-29T07:32:23;22.30;99.90
4643;DHT22;2334;48.710;9.622;2022-07-29T07:35:08;22.50;99.90
4643;DHT22;2334;48.710;9.622;2022-07-29T07:37:48;22.50;99.90
4643;DHT22;2334;48.710;9.622;2022-07-29T07:40:25;22.50;99.90
4643;DHT22;2334;48.710;9.622;2022-07-29T07:42:57;22.60;99.90
4643;DHT22;2334;48.710;9.622;2022-07-29T07:45:33;22.80;99.90
4643;DHT22;2334;48.710;9.622;2022-07-29T07:48:05;22.90;99.90
4643;DHT22;2334;48.710;9.622;2022-07-29T07:50:45;23.30;99.90
4643;DHT22;2334;48.710;9.622;2022-07-29T07:53:19;23.50;99.90
4643;DHT22;2334;48.710;9.622;2022-07-29T07:55:52;23.70;99.90
4643;DHT22;2334;48.710;9.622;2022-07-29T07:58:20;23.50;99.90
4643;DHT22;2334;48.710;9.622;2022-07-29T08:00:57;23.50;99.90
4643;DHT22;2334;48.710;9.622;2022-07-29T08:03:26;23.30;99.90
4643;DHT22;2334;48.710;9.622;2022-07-29T08:06:32;23.20;99.90
4643;DHT22;2334;48.710;9.622;2022-07-29T08:09:21;23.10;99.90
4643;DHT22;2334;48.710;9.622;2022-07-29T08:11:56;23.30;99.90
4643;DHT22;2334;48.710;9.622;2022-07-29T08:14:28;23.60;99.90
4643;DHT22;2334;48.710;9.622;2022-07-29T08:17:10;23.70;99.90
4643;DHT22;2334;48.710;9.622;2022-07-29T08:19:40;23.70;99.90
4643;DHT22;2334;48.710;9.622;2022-07-29T08:22:10;23.70;99.90
4643;DHT22;2334;48.710;9.622;2022-07-29T08:24:37;23.80;99.90
4643;DHT22;2334;48.710;9.622;2022-07-29T08:27:18;23.70;99.90
4643;DHT22;2334;48.710;9.622;2022-07-29T08:29:47;23.90;99.90
4643;DHT22;2334;48.710;9.622;2022-07-29T08:32:17;24.10;99.90
4643;DHT22;2334;48.710;9.622;2022-07-29T08:34:58;24.10;99.90
4643;DHT22;2334;48.710;9.622;2022-07-29T08:37:45;24.10;99.90
4643;DHT22;2334;48.710;9.622;2022-07-29T08:40:29;24.40;99.90
4643;DHT22;2334;48.710;9.622;2022-07-29T08:43:03;24.40;99.90
4643;DHT22;2334;48.710;9.622;2022-07-29T08:45:52;24.20;99.90
4643;DHT22;2334;48.710;9.622;2022-07-29T08:48:22;24.30;99.90
4643;DHT22;2334;48.710;9.622;2022-07-29T08:50:56;24.40;99.90
4643;DHT22;2334;48.710;9.622;2022-07-29T08:53:31;24.40;99.90
4643;DHT22;2334;48.710;9.622;2022-07-29T08:56:18;24.40;99.90
4643;DHT22;2334;48.710;9.622;2022-07-29T08:59:03;24.50;99.90
4643;DHT22;2334;48.710;9.622;2022-07-29T09:01:38;24.90;99.90
4643;DHT22;2334;48.710;9.622;2022-07-29T09:04:12;24.60;99.90
4643;DHT22;2334;48.710;9.622;2022-07-29T09:06:49;24.70;99.90
4643;DHT22;2334;48.710;9.622;2022-07-29T09:09:49;25.10;99.90
4643;DHT22;2334;48.710;9.622;2022-07-29T09:12:16;25.20;99.90
4643;DHT22;2334;48.710;9.622;2022-07-29T09:14:49;25.20;99.90
4643;DHT22;2334;48.710;9.622;2022-07-29T09:17:59;25.40;99.90
4643;DHT22;2334;48.710;9.622;2022-07-29T09:20:32;25.60;99.90
4643;DHT22;2334;48.710;9.622;2022-07-29T09:37:10;26.40;99.90
4643;DHT22;2334;48.710;9.622;2022-07-29T09:39:51;26.60;99.90
4643;DHT22;2334;48.710;9.622;2022-07-29T09:42:30;26.60;99.90
4643;DHT22;2334;48.710;9.622;2022-07-29T09:45:02;26.70;99.90
4643;DHT22;2334;48.710;9.622;2022-07-29T09:47:48;27.00;99.90
4643;DHT22;2334;48.710;9.622;2022-07-29T09:50:41;27.10;99.90
4643;DHT22;2334;48.710;9.622;2022-07-29T09:53:37;27.00;99.90
4643;DHT22;2334;48.710;9.622;2022-07-29T09:56:12;27.20;99.90
4643;DHT22;2334;48.710;9.622;2022-07-29T09:58:41;27.30;99.90
4643;DHT22;2334;48.710;9.622;2022-07-29T10:01:32;27.70;99.90
4643;DHT22;2334;48.710;9.622;2022-07-29T10:04:18;27.80;99.90
4643;DHT22;2334;48.710;9.622;2022-07-29T10:07:00;27.80;99.90
4643;DHT22;2334;48.710;9.622;2022-07-29T10:09:34;27.70;99.90
4643;DHT22;2334;48.710;9.622;2022-07-29T10:12:12;27.70;99.90
4643;DHT22;2334;48.710;9.622;2022-07-29T10:14:53;27.70;99.90
4643;DHT22;2334;48.710;9.622;2022-07-29T10:17:43;27.30;99.90
4643;DHT22;2334;48.710;9.622;2022-07-29T10:20:13;27.60;99.90
4643;DHT22;2334;48.710;9.622;2022-07-29T10:22:40;27.70;99.90
4643;DHT22;2334;48.710;9.622;2022-07-29T10:25:10;28.00;99.90
4643;DHT22;2334;48.710;9.622;2022-07-29T10:27:42;28.00;99.90
4643;DHT22;2334;48.710;9.622;2022-07-29T10:30:11;28.20;99.90
4643;DHT22;2334;48.710;9.622;2022-07-29T10:35:39;27.90;99.90
4643;DHT22;2334;48.710;9.622;2022-07-29T10:38:41;27.60;99.90
4643;DHT22;2334;48.710;9.622;2022-07-29T10:41:23;27.60;99.90
4643;DHT22;2334;48.710;9.622;2022-07-29T10:44:00;27.70;99.90
4643;DHT22;2334;48.710;9.622;2022-07-29T10:46:28;27.80;99.90
4643;DHT22;2334;48.710;9.622;2022-07-29T10:49:08;27.90;99.90
4643;DHT22;2334;48.710;9.622;2022-07-29T10:52:00;28.00;99.90
4643;DHT22;2334;48.710;9.622;2022-07-29T10:54:44;27.80;99.90
4643;DHT22;2334;48.710;9.622;2022-07-29T10:57:30;27.70;99.90
4643;DHT22;2334;48.710;9.622;2022-07-29T11:00:31;27.70;99.90
4643;DHT22;2334;48.710;9.622;2022-07-29T11:02:58;27.60;99.90
4643;DHT22;2334;48.710;9.622;2022-07-29T11:05:26;27.50;99.90
4643;DHT22;2334;48.710;9.622;2022-07-29T11:08:19;27.70;99.90
4643;DHT22;2334;48.710;9.622;2022-07-29T11:13:57;27.40;99.90
4643;DHT22;2334;48.710;9.622;2022-07-29T11:16:24;27.50;99.90
4643;DHT22;2334;48.710;9.622;2022-07-29T11:19:19;27.60;99.90
4643;DHT22;2334;48.710;9.622;2022-07-29T11:21:47;27.60;99.90
4643;DHT22;2334;48.710;9.622;2022-07-29T11:24:17;27.70;99.90
4643;DHT22;2334;48.710;9.622;2022-07-29T11:27:13;27.50;99.90
4643;DHT22;2334;48.710;9.622;2022-07-29T11:29:49;27.80;99.90
4643;DHT22;2334;48.710;9.622;2022-07-29T11:32:17;27.90;99.90
4643;DHT22;2334;48.710;9.622;2022-07-29T11:34:45;28.00;99.90
4643;DHT22;2334;48.710;9.622;2022-07-29T11:37:21;27.50;99.90
4643;DHT22;2334;48.710;9.622;2022-07-29T11:40:15;27.30;99.90
4643;DHT22;2334;48.710;9.622;2022-07-29T11:42:46;27.10;99.90
4643;DHT22;2334;48.710;9.622;2022-07-29T11:45:23;27.00;99.90
4643;DHT22;2334;48.710;9.622;2022-07-29T11:47:54;26.80;99.90
4643;DHT22;2334;48.710;9.622;2022-07-29T11:50:29;26.60;99.90
4643;DHT22;2334;48.710;9.622;2022-07-29T11:52:57;26.50;99.90
4643;DHT22;2334;48.710;9.622;2022-07-29T11:55:25;26.50;99.90
4643;DHT22;2334;48.710;9.622;2022-07-29T11:57:53;26.40;99.90
4643;DHT22;2334;48.710;9.622;2022-07-29T12:00:24;26.20;99.90
4643;DHT22;2334;48.710;9.622;2022-07-29T12:02:52;26.30;99.90
4643;DHT22;2334;48.710;9.622;2022-07-29T12:05:20;26.30;99.90
4643;DHT22;2334;48.710;9.622;2022-07-29T12:07:49;26.10;99.90
4643;DHT22;2334;48.710;9.622;2022-07-29T12:10:19;25.50;99.90
4643;DHT22;2334;48.710;9.622;2022-07-29T12:12:51;25.10;99.90
4643;DHT22;2334;48.710;9.622;2022-07-29T12:15:19;24.90;99.90
4643;DHT22;2334;48.710;9.622;2022-07-29T12:17:50;24.70;99.90
4643;DHT22;2334;48.710;9.622;2022-07-29T12:21:15;24.90;99.90
4643;DHT22;2334;48.710;9.622;2022-07-29T12:23:43;25.10;99.90
4643;DHT22;2334;48.710;9.622;2022-07-29T12:26:24;25.10;99.90
4643;DHT22;2334;48.710;9.622;2022-07-29T12:29:06;25.20;99.90
4643;DHT22;2334;48.710;9.622;2022-07-29T12:31:37;25.40;99.90
4643;DHT22;2334;48.710;9.622;2022-07-29T12:34:08;25.40;99.90
4643;DHT22;2334;48.710;9.622;2022-07-29T12:36:57;25.40;99.90
4643;DHT22;2334;48.710;9.622;2022-07-29T12:39:26;25.30;99.90
4643;DHT22;2334;48.710;9.622;2022-07-29T12:42:04;25.00;99.90
4643;DHT22;2334;48.710;9.622;2022-07-29T12:44:58;24.60;99.90
4643;DHT22;2334;48.710;9.622;2022-07-29T12:47:33;24.60;99.90
4643;DHT22;2334;48.710;9.622;2022-07-29T12:50:15;24.60;99.90
4643;DHT22;2334;48.710;9.622;2022-07-29T12:52:44;24.50;99.90
4643;DHT22;2334;48.710;9.622;2022-07-29T12:55:14;24.50;99.90
4643;DHT22;2334;48.710;9.622;2022-07-29T12:57:45;24.50;99.90
4643;DHT22;2334;48.710;9.622;2022-07-29T13:00:16;24.60;99.90
4643;DHT22;2334;48.710;9.622;2022-07-29T13:02:54;24.50;99.90
4643;DHT22;2334;48.710;9.622;2022-07-29T13:05:23;24.50;99.90
4643;DHT22;2334;48.710;9.622;2022-07-29T13:08:00;24.40;99.90
4643;DHT22;2334;48.710;9.622;2022-07-29T13:10:47;24.30;99.90
4643;DHT22;2334;48.710;9.622;2022-07-29T13:13:29;24.30;99.90
4643;DHT22;2334;48.710;9.622;2022-07-29T13:16:06;24.30;99.90
4643;DHT22;2334;48.710;9.622;2022-07-29T13:18:43;24.10;99.90
4643;DHT22;2334;48.710;9.622;2022-07-29T13:21:26;24.10;99.90
4643;DHT22;2334;48.710;9.622;2022-07-29T13:23:58;24.10;99.90
4643;DHT22;2334;48.710;9.622;2022-07-29T13:26:32;23.80;99.90
4643;DHT22;2334;48.710;9.622;2022-07-29T13:29:08;23.70;99.90
4643;DHT22;2334;48.710;9.622;2022-07-29T13:31:40;23.40;99.90
4643;DHT22;2334;48.710;9.622;2022-07-29T13:34:09;23.30;99.90
4643;DHT22;2334;48.710;9.622;2022-07-29T13:36:48;23.40;99.90
4643;DHT22;2334;48.710;9.622;2022-07-29T13:39:32;23.30;99.90
4643;DHT22;2334;48.710;9.622;2022-07-29T13:42:06;23.10;99.90
4643;DHT22;2334;48.710;9.622;2022-07-29T13:44:38;22.90;99.90
4643;DHT22;2334;48.710;9.622;2022-07-29T13:47:08;22.80;99.90
4643;DHT22;2334;48.710;9.622;2022-07-29T13:49:37;22.70;99.90
4643;DHT22;2334;48.710;9.622;2022-07-29T13:52:05;22.70;99.90
4643;DHT22;2334;48.710;9.622;2022-07-29T13:54:33;22.80;99.90
4643;DHT22;2334;48.710;9.622;2022-07-29T13:57:03;22.90;99.90
4643;DHT22;2334;48.710;9.622;2022-07-29T13:59:30;23.10;99.90
4643;DHT22;2334;48.710;9.622;2022-07-29T14:01:57;23.10;99.90
4643;DHT22;2334;48.710;9.622;2022-07-29T14:04:24;23.20;99.90
4643;DHT22;2334;48.710;9.622;2022-07-29T14:06:51;23.10;99.90
4643;DHT22;2334;48.710;9.622;2022-07-29T14:09:20;23.00;99.90
4643;DHT22;2334;48.710;9.622;2022-07-29T14:11:47;22.80;99.90
4643;DHT22;2334;48.710;9.622;2022-07-29T14:14:15;22.90;99.90
4643;DHT22;2334;48.710;9.622;2022-07-29T14:16:42;22.90;99.90
4643;DHT22;2334;48.710;9.622;2022-07-29T14:19:09;22.80;99.90
4643;DHT22;2334;48.710;9.622;2022-07-29T14:21:37;22.70;99.90
4643;DHT22;2334;48.710;9.622;2022-07-29T14:24:04;22.60;99.90
4643;DHT22;2334;48.710;9.622;2022-07-29T14:26:33;22.60;99.90
4643;DHT22;2334;48.710;9.622;2022-07-29T14:28:59;22.70;99.90
4643;DHT22;2334;48.710;9.622;2022-07-29T14:31:26;22.30;99.90
4643;DHT22;2334;48.710;9.622;2022-07-29T14:33:53;22.40;99.90
4643;DHT22;2334;48.710;9.622;2022-07-29T14:36:20;22.50;99.90
4643;DHT22;2334;48.710;9.622;2022-07-29T14:38:47;22.60;99.90
4643;DHT22;2334;48.710;9.622;2022-07-29T14:41:15;22.70;99.90
4643;DHT22;2334;48.710;9.622;2022-07-29T14:43:43;22.70;99.90
4643;DHT22;2334;48.710;9.622;2022-07-29T14:46:10;22.80;99.90
4643;DHT22;2334;48.710;9.622;2022-07-29T14:48:37;23.00;99.90
4643;DHT22;2334;48.710;9.622;2022-07-29T14:51:04;23.00;99.90
4643;DHT22;2334;48.710;9.622;2022-07-29T14:53:31;23.00;99.90
4643;DHT22;2334;48.710;9.622;2022-07-29T14:55:58;23.00;99.90
4643;DHT22;2334;48.710;9.622;2022-07-29T14:58:25;23.00;99.90
4643;DHT22;2334;48.710;9.622;2022-07-29T15:00:53;23.10;99.90
4643;DHT22;2334;48.710;9.622;2022-07-29T15:03:21;23.10;99.90
4643;DHT22;2334;48.710;9.622;2022-07-29T15:05:48;23.10;99.90
4643;DHT22;2334;48.710;9.622;2022-07-29T15:08:15;22.90;99.90
4643;DHT22;2334;48.710;9.622;2022-07-29T15:10:42;22.90;99.90
4643;DHT22;2334;48.710;9.622;2022-07-29T15:13:09;23.00;99.90
4643;DHT22;2334;48.710;9.622;2022-07-29T15:15:36;23.00;99.90
4643;DHT22;2334;48.710;9.622;2022-07-29T15:18:04;22.90;99.90
4643;DHT22;2334;48.710;9.622;2022-07-29T15:20:32;22.90;99.90
4643;DHT22;2334;48.710;9.622;2022-07-29T15:22:59;22.90;99.90
4643;DHT22;2334;48.710;9.622;2022-07-29T15:25:26;22.90;99.90
4643;DHT22;2334;48.710;9.622;2022-07-29T15:27:53;23.00;99.90
4643;DHT22;2334;48.710;9.622;2022-07-29T15:30:19;23.00;99.90
4643;DHT22;2334;48.710;9.622;2022-07-29T15:32:46;23.10;99.90
4643;DHT22;2334;48.710;9.622;2022-07-29T15:35:15;23.10;99.90
4643;DHT22;2334;48.710;9.622;2022-07-29T15:37:42;23.10;99.90
4643;DHT22;2334;48.710;9.622;2022-07-29T15:40:10;23.10;99.90
4643;DHT22;2334;48.710;9.622;2022-07-29T15:42:37;23.20;99.90
4643;DHT22;2334;48.710;9.622;2022-07-29T15:45:05;23.20;99.90
4643;DHT22;2334;48.710;9.622;2022-07-29T15:47:32;23.10;99.90
4643;DHT22;2334;48.710;9.622;2022-07-29T15:50:03;23.10;99.90
4643;DHT22;2334;48.710;9.622;2022-07-29T15:52:33;23.10;99.90
4643;DHT22;2334;48.710;9.622;2022-07-29T15:55:00;23.10;99.90
4643;DHT22;2334;48.710;9.622;2022-07-29T15:57:27;23.20;99.90
4643;DHT22;2334;48.710;9.622;2022-07-29T15:59:54;23.10;99.90
4643;DHT22;2334;48.710;9.622;2022-07-29T16:02:21;23.10;99.90
4643;DHT22;2334;48.710;9.622;2022-07-29T16:04:48;23.10;99.90
4643;DHT22;2334;48.710;9.622;2022-07-29T16:07:15;23.00;99.90
4643;DHT22;2334;48.710;9.622;2022-07-29T16:09:44;23.00;99.90
4643;DHT22;2334;48.710;9.622;2022-07-29T16:12:11;23.10;99.90
4643;DHT22;2334;48.710;9.622;2022-07-29T16:14:37;23.10;99.90
4643;DHT22;2334;48.710;9.622;2022-07-29T16:17:04;23.10;99.90
4643;DHT22;2334;48.710;9.622;2022-07-29T16:19:31;23.00;99.90
4643;DHT22;2334;48.710;9.622;2022-07-29T16:21:59;23.00;99.90
4643;DHT22;2334;48.710;9.622;2022-07-29T16:24:26;23.00;99.90
4643;DHT22;2334;48.710;9.622;2022-07-29T16:26:55;23.00;99.90
4643;DHT22;2334;48.710;9.622;2022-07-29T16:29:22;23.00;99.90
4643;DHT22;2334;48.710;9.622;2022-07-29T16:31:49;23.00;99.90
4643;DHT22;2334;48.710;9.622;2022-07-29T16:34:21;23.10;99.90
4643;DHT22;2334;48.710;9.622;2022-07-29T16:36:48;23.00;99.90
4643;DHT22;2334;48.710;9.622;2022-07-29T16:39:15;23.10;99.90
4643;DHT22;2334;48.710;9.622;2022-07-29T16:41:41;23.10;99.90
4643;DHT22;2334;48.710;9.622;2022-07-29T16:44:10;23.10;99.90
4643;DHT22;2334;48.710;9.622;2022-07-29T16:46:37;23.20;99.90
4643;DHT22;2334;48.710;9.622;2022-07-29T16:49:03;23.20;99.90
4643;DHT22;2334;48.710;9.622;2022-07-29T16:51:30;23.20;99.90
4643;DHT22;2334;48.710;9.622;2022-07-29T16:53:57;23.20;99.90
4643;DHT22;2334;48.710;9.622;2022-07-29T16:56:24;23.20;99.90
4643;DHT22;2334;48.710;9.622;2022-07-29T16:58:51;23.20;99.90
4643;DHT22;2334;48.710;9.622;2022-07-29T17:01:19;23.00;99.90
4643;DHT22;2334;48.710;9.622;2022-07-29T17:03:46;23.10;99.90
4643;DHT22;2334;48.710;9.622;2022-07-29T17:06:31;23.10;99.90
4643;DHT22;2334;48.710;9.622;2022-07-29T17:08:59;23.20;99.90
4643;DHT22;2334;48.710;9.622;2022-07-29T17:11:26;23.10;99.90
4643;DHT22;2334;48.710;9.622;2022-07-29T17:13:53;23.10;99.90
4643;DHT22;2334;48.710;9.622;2022-07-29T17:16:22;23.10;99.90
4643;DHT22;2334;48.710;9.622;2022-07-29T17:18:49;23.00;99.90
4643;DHT22;2334;48.710;9.622;2022-07-29T17:21:16;22.90;99.90
4643;DHT22;2334;48.710;9.622;2022-07-29T17:23:43;23.00;99.90